createdAt,value
2023-05-05T00:00:01.889Z,99.90
2023-05-05T00:03:24.093Z,99.90
2023-05-05T00:06:45.752Z,99.90
2023-05-05T00:10:09.444Z,99.90
2023-05-05T00:13:31.203Z,99.90
2023-05-05T00:16:52.838Z,99.90
2023-05-05T00:20:14.644Z,99.90
2023-05-05T00:23:36.293Z,99.90
2023-05-05T00:26:59.245Z,99.90
2023-05-05T00:30:21.096Z,99.90
2023-05-05T00:33:42.828Z,99.90
2023-05-05T00:37:04.392Z,99.90
2023-05-05T00:40:25.967Z,99.90
2023-05-05T00:43:48.912Z,99.90
2023-05-05T00:47:10.785Z,99.90
2023-05-05T00:50:32.445Z,99.90
2023-05-05T00:53:54.413Z,99.90
2023-05-05T00:57:16.531Z,99.90
2023-05-05T01:00:39.421Z,99.90
2023-05-05T01:04:01.101Z,99.90
2023-05-05T01:07:29.059Z,99.90
2023-05-05T01:10:53.185Z,99.90
2023-05-05T01:14:16.645Z,99.90
2023-05-05T01:17:42.401Z,99.90
2023-05-05T01:21:06.700Z,99.90
2023-05-05T01:24:40.758Z,99.90
2023-05-05T01:28:13.286Z,99.90
2023-05-05T01:31:45.222Z,99.90
2023-05-05T01:35:11.532Z,99.90
2023-05-05T01:38:36.152Z,99.90
2023-05-05T01:41:59.427Z,99.90
2023-05-05T01:45:22.111Z,99.90
2023-05-05T01:48:45.465Z,99.90
2023-05-05T01:52:08.945Z,99.90
2023-05-05T01:55:30.892Z,99.90
2023-05-05T01:58:53.294Z,99.90
2023-05-05T02:02:15.402Z,99.90
2023-05-05T02:05:39.026Z,99.90
2023-05-05T02:09:01.120Z,99.90
2023-05-05T02:12:23.010Z,99.90
2023-05-05T02:15:44.877Z,99.90
2023-05-05T02:19:06.914Z,99.90
2023-05-05T02:22:29.847Z,99.90
2023-05-05T02:25:55.061Z,99.90
2023-05-05T02:29:18.678Z,99.90
2023-05-05T02:32:41.361Z,99.90
2023-05-05T02:36:05.765Z,99.90
2023-05-05T02:39:30.882Z,99.90
2023-05-05T02:42:53.661Z,99.90
2023-05-05T02:46:15.296Z,99.90
2023-05-05T02:49:36.960Z,99.90
2023-05-05T02:52:59.060Z,99.90
2023-05-05T02:56:26.685Z,99.90
2023-05-05T02:59:50.097Z,99.90
2023-05-05T03:03:16.160Z,99.90
2023-05-05T03:06:40.642Z,99.90
2023-05-05T03:10:05.447Z,99.90
2023-05-05T03:13:29.387Z,99.90
2023-05-05T03:16:52.204Z,99.90
2023-05-05T03:20:14.419Z,99.90
2023-05-05T03:23:36.468Z,99.90
2023-05-05T03:26:58.060Z,99.90
2023-05-05T03:30:21.319Z,99.90
2023-05-05T03:33:42.940Z,99.90
2023-05-05T03:37:04.512Z,99.90
2023-05-05T03:40:36.376Z,99.90
2023-05-05T03:44:05.021Z,99.90
2023-05-05T03:47:27.956Z,99.90
2023-05-05T03:50:49.590Z,99.90
2023-05-05T03:54:11.200Z,99.90
2023-05-05T03:57:32.819Z,99.90
2023-05-05T04:00:54.410Z,99.90
2023-05-05T04:04:17.371Z,99.90
2023-05-05T04:07:39.017Z,99.90
2023-05-05T04:11:00.587Z,99.90
2023-05-05T04:14:22.141Z,99.90
2023-05-05T04:17:43.732Z,99.90
2023-05-05T04:21:06.703Z,99.90
2023-05-05T04:24:28.346Z,99.90
2023-05-05T04:27:49.941Z,99.90
2023-05-05T04:31:11.556Z,99.90
2023-05-05T04:34:33.158Z,99.90
2023-05-05T04:37:56.077Z,99.90
2023-05-05T04:41:17.651Z,99.90
2023-05-05T04:44:39.231Z,99.90
2023-05-05T04:48:00.832Z,99.90
2023-05-05T04:51:22.413Z,99.90
2023-05-05T04:54:45.581Z,99.90
2023-05-05T04:58:07.188Z,99.90
2023-05-05T05:01:28.816Z,99.90
2023-05-05T05:04:50.479Z,99.90
2023-05-05T05:08:12.081Z,99.90
2023-05-05T05:11:34.989Z,99.90
2023-05-05T05:14:56.572Z,99.90
2023-05-05T05:18:18.151Z,99.90
2023-05-05T05:21:39.727Z,99.90
2023-05-05T05:25:01.294Z,99.90
2023-05-05T05:28:24.210Z,99.90
2023-05-05T05:31:45.843Z,99.90
2023-05-05T05:35:07.675Z,99.90
2023-05-05T05:38:29.236Z,99.90
2023-05-05T05:41:50.797Z,99.90
2023-05-05T05:45:13.739Z,99.90
2023-05-05T05:48:35.299Z,99.90
2023-05-05T05:51:56.864Z,99.90
2023-05-05T05:55:18.442Z,99.90
2023-05-05T05:58:40.049Z,99.90
2023-05-05T06:02:03.063Z,99.00
2023-05-05T06:05:24.703Z,99.60
2023-05-05T06:08:46.273Z,99.70
2023-05-05T06:12:07.871Z,99.90
2023-05-05T06:15:29.477Z,99.90
2023-05-05T06:18:52.400Z,99.90
2023-05-05T06:22:13.977Z,99.90
2023-05-05T06:25:35.989Z,99.90
2023-05-05T06:28:57.596Z,99.90
2023-05-05T06:32:19.148Z,99.90
2023-05-05T06:35:42.051Z,99.90
2023-05-05T06:39:03.773Z,99.90
2023-05-05T06:42:25.441Z,99.90
2023-05-05T06:45:47.034Z,99.90
2023-05-05T06:49:08.628Z,99.90
2023-05-05T06:52:31.561Z,99.90
2023-05-05T06:55:53.221Z,99.90
2023-05-05T06:59:14.797Z,99.90
2023-05-05T07:02:36.387Z,99.90
2023-05-05T07:05:57.951Z,99.90
2023-05-05T07:09:20.944Z,99.90
2023-05-05T07:12:42.568Z,99.90
2023-05-05T07:16:04.701Z,99.50
2023-05-05T07:19:26.316Z,97.30
2023-05-05T07:22:47.937Z,97.30
2023-05-05T07:26:10.881Z,96.90
2023-05-05T07:29:32.612Z,96.20
2023-05-05T07:32:54.250Z,96.30
2023-05-05T07:36:16.476Z,96.30
2023-05-05T07:39:38.090Z,96.10
2023-05-05T07:43:01.032Z,96.10
2023-05-05T07:46:22.674Z,96.10
2023-05-05T07:49:44.261Z,96.30
2023-05-05T07:53:13.700Z,95.90
2023-05-05T07:56:36.262Z,96.30
2023-05-05T07:59:59.252Z,96.60
2023-05-05T08:03:20.945Z,97.70
2023-05-05T08:06:42.656Z,98.90
2023-05-05T08:10:04.558Z,99.90
2023-05-05T08:13:26.160Z,99.90
2023-05-05T08:16:49.122Z,99.90
2023-05-05T08:20:10.965Z,99.90
2023-05-05T08:23:32.643Z,99.90
2023-05-05T08:26:54.644Z,99.90
2023-05-05T08:30:16.810Z,99.90
2023-05-05T08:33:39.820Z,99.90
2023-05-05T08:37:01.467Z,99.90
2023-05-05T08:40:28.648Z,99.90
2023-05-05T08:43:50.223Z,99.90
2023-05-05T08:47:14.954Z,99.90
2023-05-05T08:50:38.789Z,99.90
2023-05-05T08:54:02.281Z,99.90
2023-05-05T08:57:27.888Z,99.90
2023-05-05T09:00:49.786Z,99.90
2023-05-05T09:04:11.428Z,99.90
2023-05-05T09:07:34.681Z,99.90
2023-05-05T09:10:56.383Z,99.90
2023-05-05T09:14:17.964Z,99.90
2023-05-05T09:17:39.942Z,99.90
2023-05-05T09:21:18.217Z,99.90
2023-05-05T09:24:42.575Z,99.90
2023-05-05T09:28:14.092Z,99.90
2023-05-05T09:31:36.422Z,99.90
2023-05-05T09:34:58.554Z,99.90
2023-05-05T09:38:20.518Z,99.90
2023-05-05T09:41:43.616Z,99.90
2023-05-05T09:45:23.635Z,99.90
2023-05-05T09:48:45.209Z,99.90
2023-05-05T09:52:11.886Z,99.90
2023-05-05T09:55:33.580Z,99.90
2023-05-05T09:59:07.568Z,99.90
2023-05-05T10:02:33.300Z,99.00
2023-05-05T10:05:55.736Z,98.80
2023-05-05T10:09:17.392Z,93.10
2023-05-05T10:12:39.345Z,95.00
2023-05-05T10:16:03.251Z,94.70
2023-05-05T10:19:26.161Z,92.70
2023-05-05T10:22:50.485Z,92.80
2023-05-05T10:26:13.493Z,92.20
2023-05-05T10:29:39.170Z,94.40
2023-05-05T10:33:18.258Z,93.80
2023-05-05T10:36:45.469Z,94.70
2023-05-05T10:40:08.236Z,94.60
2023-05-05T10:43:30.538Z,94.60
2023-05-05T10:46:52.182Z,95.40
2023-05-05T10:50:20.830Z,96.20
2023-05-05T10:53:44.255Z,96.70
2023-05-05T10:57:07.562Z,95.70
2023-05-05T11:00:47.079Z,97.00
2023-05-05T11:04:21.571Z,96.10
2023-05-05T11:07:44.904Z,96.80
2023-05-05T11:11:06.525Z,96.50
2023-05-05T11:14:28.105Z,97.00
2023-05-05T11:17:49.843Z,97.20
2023-05-05T11:21:12.492Z,97.80
2023-05-05T11:24:35.524Z,97.60
2023-05-05T11:28:06.542Z,97.10
2023-05-05T11:31:28.867Z,96.50
2023-05-05T11:34:50.741Z,96.30
2023-05-05T11:38:12.668Z,97.10
2023-05-05T11:41:44.893Z,95.60
2023-05-05T11:45:19.540Z,95.60
2023-05-05T11:48:44.196Z,96.00
2023-05-05T11:52:07.628Z,95.00
2023-05-05T11:55:29.232Z,93.20
2023-05-05T11:59:09.502Z,92.10
2023-05-05T12:02:31.310Z,93.30
2023-05-05T12:05:54.038Z,94.30
2023-05-05T12:09:15.978Z,93.20
2023-05-05T12:12:38.616Z,91.60
2023-05-05T12:16:09.467Z,92.70
2023-05-05T12:19:31.122Z,90.70
2023-05-05T12:22:58.868Z,89.60
2023-05-05T12:26:24.416Z,90.70
2023-05-05T12:29:46.092Z,91.10
2023-05-05T12:33:09.043Z,90.40
2023-05-05T12:36:30.885Z,91.40
2023-05-05T12:39:52.464Z,92.10
2023-05-05T12:43:23.851Z,92.10
2023-05-05T12:46:45.704Z,92.90
2023-05-05T12:50:09.575Z,91.20
2023-05-05T12:53:31.322Z,91.40
2023-05-05T12:56:52.922Z,92.60
2023-05-05T13:00:15.527Z,92.00
2023-05-05T13:03:37.226Z,92.00
2023-05-05T13:07:09.868Z,91.40
2023-05-05T13:10:31.601Z,91.90
2023-05-05T13:13:53.234Z,90.70
2023-05-05T13:17:14.950Z,92.30
2023-05-05T13:20:36.625Z,90.60
2023-05-05T13:24:12.424Z,90.50
2023-05-05T13:27:41.091Z,91.20
2023-05-05T13:31:04.499Z,91.30
2023-05-05T13:34:26.144Z,91.30
2023-05-05T13:37:47.736Z,91.10
2023-05-05T13:41:10.651Z,92.20
2023-05-05T13:44:32.454Z,91.70
2023-05-05T13:47:54.136Z,90.90
2023-05-05T13:51:15.742Z,92.20
2023-05-05T13:54:37.323Z,91.80
2023-05-05T13:58:00.261Z,92.30
2023-05-05T14:01:21.917Z,91.60
2023-05-05T14:04:43.537Z,90.50
2023-05-05T14:08:05.699Z,90.90
2023-05-05T14:11:27.280Z,92.40
2023-05-05T14:14:50.253Z,92.00
2023-05-05T14:18:11.848Z,92.30
2023-05-05T14:21:33.454Z,91.30
2023-05-05T14:24:55.225Z,91.80
2023-05-05T14:28:16.812Z,91.80
2023-05-05T14:31:40.409Z,91.90
2023-05-05T14:35:02.053Z,92.00
2023-05-05T14:38:23.679Z,92.20
2023-05-05T14:41:45.827Z,92.20
2023-05-05T14:45:08.640Z,93.10
2023-05-05T14:48:32.372Z,91.40
2023-05-05T14:51:56.118Z,91.30
2023-05-05T14:55:18.345Z,91.70
2023-05-05T14:58:39.961Z,92.10
2023-05-05T15:02:01.945Z,92.10
2023-05-05T15:05:25.033Z,92.20
2023-05-05T15:08:46.709Z,92.30
2023-05-05T15:12:08.305Z,92.50
2023-05-05T15:15:29.899Z,92.80
2023-05-05T15:18:51.518Z,92.90
2023-05-05T15:22:14.590Z,93.10
2023-05-05T15:25:36.139Z,94.00
2023-05-05T15:28:57.784Z,93.60
2023-05-05T15:32:19.342Z,93.50
2023-05-05T15:35:41.948Z,93.90
2023-05-05T15:39:05.467Z,94.50
2023-05-05T15:42:27.304Z,94.40
2023-05-05T15:45:49.020Z,95.20
2023-05-05T15:49:10.876Z,95.60
2023-05-05T15:52:32.610Z,95.40
2023-05-05T15:55:55.673Z,95.60
2023-05-05T15:59:17.264Z,97.00
2023-05-05T16:02:41.125Z,97.40
2023-05-05T16:06:02.789Z,98.20
2023-05-05T16:09:24.361Z,99.10
2023-05-05T16:12:47.365Z,99.80
2023-05-05T16:16:09.011Z,99.90
2023-05-05T16:19:30.593Z,99.90
2023-05-05T16:22:52.182Z,99.90
2023-05-05T16:26:13.744Z,99.90
2023-05-05T16:29:36.700Z,99.90
2023-05-05T16:32:58.314Z,99.90
2023-05-05T16:36:19.969Z,99.90
2023-05-05T16:39:41.600Z,99.90
2023-05-05T16:43:03.226Z,99.90
2023-05-05T16:46:26.284Z,99.90
2023-05-05T16:49:47.916Z,99.90
2023-05-05T16:53:09.591Z,99.90
2023-05-05T16:56:31.156Z,99.90
2023-05-05T16:59:54.523Z,99.90
2023-05-05T17:03:17.635Z,99.90
2023-05-05T17:06:39.214Z,99.90
2023-05-05T17:10:00.824Z,99.90
2023-05-05T17:13:22.476Z,99.90
2023-05-05T17:16:44.082Z,99.90
2023-05-05T17:20:07.953Z,99.90
2023-05-05T17:23:29.581Z,99.90
2023-05-05T17:26:51.162Z,99.90
2023-05-05T17:30:13.238Z,99.90
2023-05-05T17:33:34.843Z,99.90
2023-05-05T17:36:57.814Z,99.90
2023-05-05T17:40:19.393Z,99.90
2023-05-05T17:43:40.992Z,99.90
2023-05-05T17:47:02.629Z,99.90
2023-05-05T17:50:24.221Z,99.90
2023-05-05T17:53:47.158Z,99.90
2023-05-05T17:57:08.740Z,99.90
2023-05-05T18:00:30.418Z,99.90
2023-05-05T18:03:52.314Z,99.90
2023-05-05T18:07:14.021Z,99.90
2023-05-05T18:10:36.954Z,99.90
2023-05-05T18:13:58.532Z,99.90
2023-05-05T18:17:20.134Z,99.90
2023-05-05T18:20:41.698Z,99.90
2023-05-05T18:24:15.748Z,99.90
2023-05-05T18:27:43.077Z,99.90
2023-05-05T18:31:04.756Z,99.90
2023-05-05T18:34:26.469Z,99.90
2023-05-05T18:37:48.044Z,99.90
2023-05-05T18:41:09.641Z,99.90
2023-05-05T18:44:32.605Z,99.90
2023-05-05T18:47:54.275Z,99.90
2023-05-05T18:51:15.942Z,99.90
2023-05-05T18:54:38.019Z,99.90
2023-05-05T18:57:59.683Z,99.90
2023-05-05T19:01:22.735Z,99.90
2023-05-05T19:04:44.491Z,99.90
2023-05-05T19:08:06.269Z,99.90
2023-05-05T19:11:27.877Z,99.90
2023-05-05T19:14:49.432Z,99.90
2023-05-05T19:18:12.396Z,99.90
2023-05-05T19:21:34.018Z,99.90
2023-05-05T19:24:55.613Z,99.90
2023-05-05T19:28:17.203Z,99.90
2023-05-05T19:31:41.813Z,99.90
2023-05-05T19:35:05.859Z,99.90
2023-05-05T19:38:28.160Z,99.90
2023-05-05T19:41:49.788Z,99.90
2023-05-05T19:45:11.444Z,99.90
2023-05-05T19:48:33.037Z,99.90
2023-05-05T19:51:55.973Z,99.90
2023-05-05T19:55:17.589Z,99.90
2023-05-05T19:58:55.256Z,99.90
2023-05-05T20:02:16.920Z,99.90
2023-05-05T20:05:38.693Z,99.90
2023-05-05T20:09:01.670Z,99.90
2023-05-05T20:12:23.490Z,99.90
2023-05-05T20:15:45.261Z,99.90
2023-05-05T20:19:06.918Z,99.90
2023-05-05T20:22:28.543Z,99.90
2023-05-05T20:25:51.560Z,99.90
2023-05-05T20:29:13.208Z,99.90
2023-05-05T20:32:35.010Z,99.90
2023-05-05T20:35:56.793Z,99.90
2023-05-05T20:39:18.459Z,99.90
2023-05-05T20:42:41.420Z,99.90
2023-05-05T20:46:03.128Z,99.90
2023-05-05T20:49:24.720Z,99.90
2023-05-05T20:52:46.363Z,99.90
2023-05-05T20:56:08.917Z,99.90
2023-05-05T20:59:32.237Z,99.90
2023-05-05T21:02:54.010Z,99.90
2023-05-05T21:06:15.698Z,99.90
2023-05-05T21:09:37.393Z,99.90
2023-05-05T21:12:59.095Z,99.90
2023-05-05T21:16:22.195Z,99.90
2023-05-05T21:19:43.858Z,99.90
2023-05-05T21:23:05.478Z,99.90
2023-05-05T21:26:27.077Z,99.90
2023-05-05T21:29:50.103Z,99.90
2023-05-05T21:33:13.084Z,99.90
2023-05-05T21:36:34.687Z,99.90
2023-05-05T21:39:56.279Z,99.90
2023-05-05T21:43:17.849Z,99.90
2023-05-05T21:46:39.531Z,99.90
2023-05-05T21:50:02.546Z,99.90
2023-05-05T21:53:24.294Z,99.90
2023-05-05T21:56:45.888Z,99.90
2023-05-05T22:00:08.327Z,99.90
2023-05-05T22:03:30.130Z,99.90
2023-05-05T22:06:53.090Z,99.90
2023-05-05T22:10:14.752Z,99.90
2023-05-05T22:13:36.335Z,99.90
2023-05-05T22:16:58.333Z,99.90
2023-05-05T22:20:19.900Z,99.90
2023-05-05T22:23:42.790Z,99.90
2023-05-05T22:27:04.371Z,99.90
2023-05-05T22:30:25.914Z,99.90
2023-05-05T22:33:47.477Z,99.90
2023-05-05T22:37:09.357Z,99.90
2023-05-05T22:40:32.343Z,99.90
2023-05-05T22:43:53.917Z,99.90
2023-05-05T22:47:15.584Z,99.90
2023-05-05T22:50:37.226Z,99.90
2023-05-05T22:53:58.801Z,99.90
2023-05-05T22:57:21.793Z,99.90
2023-05-05T23:00:43.434Z,99.90
2023-05-05T23:04:05.736Z,99.90
2023-05-05T23:07:27.378Z,99.90
2023-05-05T23:10:48.944Z,99.90
2023-05-05T23:14:11.863Z,99.90
2023-05-05T23:17:33.460Z,99.90
2023-05-05T23:20:55.057Z,99.90
2023-05-05T23:24:16.636Z,99.90
2023-05-05T23:27:38.434Z,99.90
2023-05-05T23:31:01.427Z,99.90
2023-05-05T23:34:23.026Z,99.90
2023-05-05T23:37:44.603Z,99.90
2023-05-05T23:41:06.205Z,99.90
2023-05-05T23:44:27.786Z,99.90
2023-05-05T23:47:50.717Z,99.90
2023-05-05T23:51:12.334Z,99.90
2023-05-05T23:54:33.958Z,99.90
2023-05-05T23:57:55.525Z,99.90
